LEBA/ODB METAR and TAF weather

Enter ICAO airport designator
Station Type Date Time Source
LEBA METAR 2023/01/30 11:30 UTC NOAA

LEBA 301130Z 07008KT 050V110 CAVOK 10/01 Q1028


Station Type Date Time Source
LEBA Decoded METAR 2023/01/30 11:30 UTC NOAA

Cordoba / Aeropuerto, Spain (LEBA) 37-51N 004-51W 92M
Jan 30, 2023 - 06:30 AM EST / 2023.01.30 1130 UTC
Wind: from the ENE (070 degrees) at 9 MPH (8 KT) (direction variable):0
Visibility: greater than 7 mile(s):0
Temperature: 50 F (10 C)
Dew Point: 33 F (1 C)
Relative Humidity: 53%
Pressure (altimeter): 30.36 in. Hg (1028 hPa)
ob: LEBA 301130Z 07008KT 050V110 CAVOK 10/01 Q1028
cycle: 11

Station Type Date Time Source
LEBA TAF 2023/01/30 09:27 UTC NOAA

TAF TAF LEBA 300800Z 3009/3109 08006KT CAVOK TX14/3014Z TNM01/3107Z

Example: see airport list